createdAt,value
2018-12-31T04:24:01.275Z,58.43
2018-12-31T04:30:27.421Z,62.23
2018-12-31T04:33:26.405Z,60.83
2018-12-31T04:36:22.735Z,60.90
2018-12-31T04:39:32.534Z,58.78
2018-12-31T04:42:25.437Z,60.98
2018-12-31T04:45:21.964Z,61.90
2018-12-31T04:48:19.025Z,55.10
2018-12-31T04:51:33.710Z,56.00
2018-12-31T04:54:54.888Z,55.43
2018-12-31T04:57:30.138Z,54.83
2018-12-31T05:00:27.019Z,54.48
2018-12-31T05:03:23.711Z,53.13
2018-12-31T05:06:20.171Z,53.68
2018-12-31T05:09:22.665Z,52.37
2018-12-31T05:12:18.769Z,55.85
2018-12-31T05:22:00.480Z,48.83
2018-12-31T05:28:26.201Z,49.93
2018-12-31T05:31:33.251Z,50.40
2018-12-31T05:34:36.736Z,50.67
2018-12-31T05:37:33.986Z,50.52
2018-12-31T05:40:43.236Z,47.67
2018-12-31T05:43:45.557Z,46.73
2018-12-31T05:46:43.892Z,47.23
2018-12-31T05:49:40.752Z,48.42
2018-12-31T05:52:40.697Z,49.18
2018-12-31T05:55:39.694Z,58.68
2018-12-31T05:58:36.417Z,60.00
2018-12-31T06:01:33.674Z,56.28
2018-12-31T06:04:33.082Z,57.83
2018-12-31T06:07:37.685Z,56.85
2018-12-31T06:10:38.176Z,58.13
2018-12-31T06:13:33.705Z,56.42
2018-12-31T06:16:30.572Z,57.17
2018-12-31T06:19:29.906Z,57.33
2018-12-31T06:22:31.552Z,57.40
2018-12-31T06:25:23.747Z,56.00
2018-12-31T06:28:41.543Z,52.50
2018-12-31T06:31:48.825Z,55.38
2018-12-31T06:39:04.396Z,51.35
2018-12-31T06:45:13.267Z,48.55
2018-12-31T06:48:18.212Z,52.38
2018-12-31T06:55:14.878Z,51.65
2018-12-31T06:58:16.756Z,47.30
2018-12-31T07:01:14.799Z,48.83
2018-12-31T07:04:21.172Z,47.58
2018-12-31T07:07:24.074Z,46.45
2018-12-31T07:10:22.038Z,47.08
2018-12-31T07:17:02.654Z,39.67
2018-12-31T07:19:58.547Z,42.13
2018-12-31T07:22:58.774Z,42.30
2018-12-31T07:29:53.145Z,41.23
2018-12-31T07:32:53.340Z,38.83
2018-12-31T07:36:27.613Z,40.28
2018-12-31T07:39:48.410Z,44.42
2018-12-31T07:52:50.084Z,45.43
2018-12-31T08:06:01.966Z,44.60
2018-12-31T08:12:02.738Z,45.23
2018-12-31T08:15:21.079Z,44.20
2018-12-31T08:18:21.759Z,46.77
2018-12-31T08:21:23.150Z,44.13
2018-12-31T08:24:17.123Z,44.35
2018-12-31T08:27:28.366Z,45.45
2018-12-31T08:30:28.351Z,43.48
2018-12-31T08:33:24.615Z,43.50
2018-12-31T08:36:40.814Z,44.63
2018-12-31T08:39:37.068Z,44.42
2018-12-31T08:42:36.600Z,44.25
2018-12-31T08:45:39.458Z,44.27
2018-12-31T08:51:33.791Z,43.68
2018-12-31T08:54:30.845Z,43.05
2018-12-31T08:57:26.999Z,43.17
2018-12-31T09:00:31.185Z,42.80
2018-12-31T09:03:27.636Z,43.13
2018-12-31T09:06:27.002Z,43.60
2018-12-31T09:09:23.839Z,44.95
2018-12-31T09:12:30.815Z,44.75
2018-12-31T09:16:00.301Z,44.55
2018-12-31T09:19:31.677Z,45.85
2018-12-31T09:26:00.064Z,45.60
2018-12-31T09:50:23.834Z,42.25
2018-12-31T09:53:12.642Z,39.42
2018-12-31T09:59:23.878Z,40.78
2018-12-31T10:05:39.252Z,39.73
2018-12-31T10:11:41.364Z,40.00
2018-12-31T10:14:38.127Z,39.20
2018-12-31T10:17:34.762Z,38.45
2018-12-31T10:20:34.676Z,39.18
2018-12-31T10:23:28.597Z,38.50
2018-12-31T10:26:24.911Z,37.33
2018-12-31T10:29:36.037Z,36.35
2018-12-31T10:32:30.217Z,35.68
2018-12-31T10:38:53.892Z,37.73
2018-12-31T10:42:02.032Z,37.25
2018-12-31T10:45:19.672Z,35.25
2018-12-31T10:48:30.330Z,35.85
2018-12-31T10:54:38.701Z,35.23
2018-12-31T10:57:34.924Z,34.08
2018-12-31T11:00:33.347Z,35.40
2018-12-31T11:03:44.998Z,35.45
2018-12-31T11:10:07.538Z,36.58
2018-12-31T11:13:14.519Z,34.95
2018-12-31T11:16:19.424Z,36.00
2018-12-31T11:19:25.956Z,36.00
2018-12-31T11:22:45.996Z,36.25
2018-12-31T11:39:16.150Z,36.42
2018-12-31T11:42:22.297Z,35.98
2018-12-31T11:51:51.280Z,39.48
2018-12-31T11:55:08.800Z,40.52
2018-12-31T11:58:15.414Z,38.60
2018-12-31T12:11:39.927Z,38.70
2018-12-31T12:14:54.578Z,40.88
2018-12-31T12:17:55.347Z,40.17
2018-12-31T12:20:54.299Z,42.03
2018-12-31T12:30:36.833Z,43.28
2018-12-31T12:33:35.675Z,45.20
2018-12-31T12:36:40.884Z,49.45
2018-12-31T12:39:55.268Z,47.60
2018-12-31T12:42:51.766Z,48.58
2018-12-31T12:45:48.916Z,51.00
2018-12-31T12:48:54.301Z,50.95
2018-12-31T12:54:54.095Z,58.70
2018-12-31T12:58:02.325Z,65.28
2018-12-31T13:00:55.804Z,64.82
2018-12-31T13:03:54.841Z,67.00
2018-12-31T13:06:50.695Z,68.75
2018-12-31T13:09:46.522Z,79.20
2018-12-31T13:12:44.275Z,72.85
2018-12-31T13:15:48.592Z,80.32
2018-12-31T13:18:59.127Z,81.50
2018-12-31T13:22:07.739Z,84.20
2018-12-31T13:25:06.003Z,85.20
2018-12-31T13:28:05.644Z,85.57
2018-12-31T13:31:05.850Z,89.80
2018-12-31T13:34:11.366Z,91.90
2018-12-31T13:37:10.472Z,88.42
2018-12-31T13:40:06.012Z,92.17
2018-12-31T13:43:05.674Z,93.65
2018-12-31T13:46:03.385Z,101.33
2018-12-31T13:48:57.864Z,113.77
2018-12-31T13:51:53.159Z,105.35
2018-12-31T13:54:48.743Z,107.27
2018-12-31T13:57:44.694Z,136.92
2018-12-31T14:00:40.250Z,133.47
2018-12-31T14:03:36.244Z,136.35
2018-12-31T14:06:32.387Z,127.22
2018-12-31T14:09:30.849Z,122.33
2018-12-31T14:12:39.160Z,118.05
2018-12-31T14:15:31.827Z,120.35
2018-12-31T14:18:27.595Z,117.40
2018-12-31T14:21:24.248Z,116.80
2018-12-31T14:24:20.046Z,115.00
2018-12-31T14:27:15.817Z,113.05
2018-12-31T14:30:13.607Z,109.63
2018-12-31T14:33:09.507Z,94.05
2018-12-31T14:36:05.718Z,116.05
2018-12-31T14:39:01.250Z,110.70
2018-12-31T14:41:59.119Z,109.75
2018-12-31T14:44:54.772Z,98.70
2018-12-31T14:47:50.479Z,104.97
2018-12-31T14:50:46.183Z,102.22
2018-12-31T14:53:41.876Z,95.83
2018-12-31T14:56:37.422Z,92.00
2018-12-31T14:59:32.805Z,85.10
2018-12-31T15:02:28.095Z,92.53
2018-12-31T15:05:24.983Z,95.15
2018-12-31T15:08:23.425Z,105.67
2018-12-31T15:11:19.188Z,101.62
2018-12-31T15:14:16.099Z,112.68
2018-12-31T15:17:12.032Z,105.05
2018-12-31T15:20:07.705Z,111.37
2018-12-31T15:23:03.722Z,113.97
2018-12-31T15:25:59.491Z,132.67
2018-12-31T15:28:56.904Z,159.27
2018-12-31T15:31:53.439Z,167.72
2018-12-31T15:34:49.186Z,197.90
2018-12-31T15:37:44.961Z,207.07
2018-12-31T15:40:40.517Z,212.02
2018-12-31T15:43:35.647Z,201.27
2018-12-31T15:46:31.557Z,201.02
2018-12-31T15:49:27.727Z,220.12
2018-12-31T15:52:23.236Z,227.35
2018-12-31T15:55:18.821Z,271.62
2018-12-31T15:58:15.125Z,272.45
2018-12-31T16:01:11.345Z,304.35
2018-12-31T16:04:10.926Z,295.27
2018-12-31T16:07:06.713Z,300.40
2018-12-31T16:10:03.320Z,307.65
2018-12-31T16:12:59.294Z,310.13
2018-12-31T16:15:57.611Z,298.25
2018-12-31T16:18:53.325Z,276.18
2018-12-31T16:21:49.621Z,270.05
2018-12-31T16:24:45.648Z,257.10
2018-12-31T16:27:41.907Z,249.50
2018-12-31T16:30:38.229Z,226.45
2018-12-31T16:33:34.486Z,214.78
2018-12-31T16:36:30.214Z,216.00
2018-12-31T16:39:26.830Z,210.13
2018-12-31T16:42:22.192Z,208.25
2018-12-31T16:45:21.180Z,200.28
2018-12-31T16:48:14.717Z,192.47
2018-12-31T16:51:11.051Z,201.35
2018-12-31T16:54:10.378Z,197.40
2018-12-31T16:57:09.506Z,196.12
2018-12-31T17:00:04.980Z,199.00
2018-12-31T17:03:00.548Z,193.78
2018-12-31T17:05:56.963Z,185.05
2018-12-31T17:08:55.539Z,178.10
2018-12-31T17:11:51.542Z,179.07
2018-12-31T17:14:47.806Z,177.80
2018-12-31T17:17:43.859Z,182.93
2018-12-31T17:20:40.612Z,169.13
2018-12-31T17:23:36.398Z,177.95
2018-12-31T17:26:32.497Z,183.72
2018-12-31T17:29:28.174Z,173.13
2018-12-31T17:32:23.679Z,163.00
2018-12-31T17:35:19.296Z,151.93
2018-12-31T17:38:17.738Z,149.27
2018-12-31T17:41:13.369Z,142.30
2018-12-31T17:44:12.069Z,141.65
2018-12-31T17:47:07.292Z,136.22
2018-12-31T17:50:03.080Z,131.50
2018-12-31T17:52:58.455Z,133.00
2018-12-31T17:55:54.097Z,135.30
2018-12-31T17:58:49.563Z,139.57
2018-12-31T18:01:48.575Z,137.57
2018-12-31T18:04:46.456Z,140.88
2018-12-31T18:07:42.090Z,143.70
2018-12-31T18:10:43.208Z,141.85
2018-12-31T18:13:38.447Z,145.30
2018-12-31T18:16:34.052Z,152.43
2018-12-31T18:19:31.797Z,146.82
2018-12-31T18:22:27.305Z,139.83
2018-12-31T18:25:23.102Z,140.97
2018-12-31T18:28:18.671Z,141.35
2018-12-31T18:31:14.473Z,155.60
2018-12-31T18:34:13.144Z,157.95
2018-12-31T18:37:08.787Z,152.07
2018-12-31T18:40:07.189Z,183.83
2018-12-31T18:43:02.747Z,189.52
2018-12-31T18:46:05.867Z,200.93
2018-12-31T18:49:11.625Z,206.68
2018-12-31T18:52:06.607Z,213.50
2018-12-31T18:55:02.585Z,215.00
2018-12-31T18:57:58.342Z,217.35
2018-12-31T19:00:54.046Z,207.07
2018-12-31T19:03:49.424Z,197.70
2018-12-31T19:06:49.113Z,184.15
2018-12-31T19:09:44.559Z,189.07
2018-12-31T19:12:39.996Z,188.12
2018-12-31T19:15:35.615Z,191.13
2018-12-31T19:18:40.253Z,180.35
2018-12-31T19:21:36.867Z,185.93
2018-12-31T19:24:32.791Z,179.00
2018-12-31T19:27:28.406Z,173.22
2018-12-31T19:30:23.781Z,175.80
2018-12-31T19:33:19.637Z,172.70
2018-12-31T19:36:15.515Z,185.37
2018-12-31T19:39:12.249Z,196.17
2018-12-31T19:42:08.086Z,202.20
2018-12-31T19:45:06.391Z,181.60
2018-12-31T19:48:02.196Z,205.35
2018-12-31T19:50:57.679Z,202.05
2018-12-31T19:53:53.263Z,204.57
2018-12-31T19:56:52.162Z,209.57
2018-12-31T19:59:47.665Z,197.47
2018-12-31T20:02:45.607Z,189.33
2018-12-31T20:05:44.802Z,184.23
2018-12-31T20:08:36.995Z,172.87
2018-12-31T20:11:32.349Z,164.43
2018-12-31T20:14:27.916Z,153.82
2018-12-31T20:17:23.764Z,158.18
2018-12-31T20:20:19.600Z,151.18
2018-12-31T20:23:14.907Z,152.68
2018-12-31T20:26:10.158Z,154.47
2018-12-31T20:29:06.027Z,153.25
2018-12-31T20:32:01.925Z,148.40
2018-12-31T20:34:57.435Z,143.20
2018-12-31T20:37:53.175Z,143.50
2018-12-31T20:40:48.788Z,145.47
2018-12-31T20:43:44.402Z,147.62
2018-12-31T20:46:40.082Z,147.75
2018-12-31T20:49:35.411Z,151.42
2018-12-31T20:52:31.119Z,147.60
2018-12-31T20:55:29.835Z,146.60
2018-12-31T20:58:25.391Z,148.50
2018-12-31T21:01:21.197Z,148.20
2018-12-31T21:04:16.846Z,150.80
2018-12-31T21:07:12.401Z,154.93
2018-12-31T21:10:11.094Z,161.47
2018-12-31T21:13:06.943Z,169.25
2018-12-31T21:16:05.551Z,169.95
2018-12-31T21:19:00.258Z,171.33
2018-12-31T21:22:05.782Z,178.27
2018-12-31T21:24:55.015Z,214.60
2018-12-31T21:27:50.446Z,220.17
2018-12-31T21:30:46.071Z,231.47
2018-12-31T21:33:41.572Z,253.93
2018-12-31T21:36:37.174Z,262.33
2018-12-31T21:39:32.635Z,272.37
2018-12-31T21:42:28.306Z,276.60
2018-12-31T21:45:23.650Z,282.10
2018-12-31T21:48:19.516Z,278.12
2018-12-31T21:51:14.989Z,282.20
2018-12-31T21:54:12.792Z,285.77
2018-12-31T21:57:08.181Z,287.77
2018-12-31T22:00:06.713Z,287.70
2018-12-31T22:03:02.055Z,283.53
2018-12-31T22:05:57.665Z,279.93
2018-12-31T22:08:53.179Z,271.80
2018-12-31T22:11:48.755Z,275.45
2018-12-31T22:14:44.436Z,258.10
2018-12-31T22:17:39.939Z,247.05
2018-12-31T22:20:35.941Z,231.60
2018-12-31T22:23:31.941Z,218.88
2018-12-31T22:26:28.128Z,205.37
2018-12-31T22:29:23.844Z,195.07
2018-12-31T22:32:22.504Z,191.13
2018-12-31T22:35:21.916Z,185.30
2018-12-31T22:38:17.762Z,180.27
2018-12-31T22:41:16.654Z,172.40
2018-12-31T22:44:09.333Z,170.80
2018-12-31T22:47:05.089Z,170.00
2018-12-31T22:50:00.474Z,168.07
2018-12-31T22:52:56.343Z,154.40
2018-12-31T22:55:51.794Z,153.13
2018-12-31T22:58:48.120Z,148.07
2018-12-31T23:01:43.655Z,145.80
2018-12-31T23:04:39.190Z,147.25
2018-12-31T23:07:34.767Z,148.80
2018-12-31T23:10:30.342Z,154.60
2018-12-31T23:13:25.637Z,162.60
2018-12-31T23:16:27.671Z,162.10
2018-12-31T23:19:23.083Z,164.57
2018-12-31T23:22:18.889Z,162.17
2018-12-31T23:25:14.558Z,158.10
2018-12-31T23:28:10.230Z,155.67
2018-12-31T23:31:06.066Z,160.03
2018-12-31T23:34:02.505Z,161.87
2018-12-31T23:36:58.108Z,161.00
2018-12-31T23:39:53.340Z,153.67
2018-12-31T23:42:48.895Z,150.38
2018-12-31T23:45:44.177Z,147.03
2018-12-31T23:48:39.519Z,142.37
2018-12-31T23:51:35.207Z,139.67
2018-12-31T23:54:31.563Z,137.33
2018-12-31T23:57:26.953Z,133.57
